Ariel, Argentina
Current Conditions -  °F | °C
As of 5:30 PM on Friday 21 Nov 2014 (Local Time) from SAEZ Reporting Station
Light Rain Light Rain  
Wind Chill: 63°   Ceiling: 5000
Heat Index: 63°   Visibility: 3mi
Dew Point: 55°   Wind: 12mph
Humidity: 77%   Direction: 130°SE
Pressure: 29.91"   Gusts: NA
Location:  36.53°S, 59.9°W
Report Text: SAEZ 212030Z 13010KT 5000 -RA BR FEW006 SCT020 OVC050 17/13 Q1013
Loading
Personal Weather Stations






























Interactive Weather Map New forecast layout! Learn more

10-Day Weather Forecast

Advertisements
Track Severe Weather on mobile